createdAt,value
2022-10-22T00:01:58.099Z,41.10
2022-10-22T00:06:56.811Z,38.58
2022-10-22T00:11:55.477Z,41.53
2022-10-22T00:16:54.189Z,36.85
2022-10-22T00:21:53.342Z,45.63
2022-10-22T00:26:52.926Z,43.72
2022-10-22T00:31:51.849Z,40.97
2022-10-22T00:36:51.733Z,44.15
2022-10-22T00:41:52.159Z,44.65
2022-10-22T00:46:50.900Z,43.80
2022-10-22T00:51:49.685Z,44.60
2022-10-22T00:56:49.259Z,44.10
2022-10-22T01:01:47.986Z,44.25
2022-10-22T01:06:47.379Z,44.88
2022-10-22T01:12:12.376Z,45.80
2022-10-22T01:17:37.577Z,39.33
2022-10-22T01:22:45.991Z,42.05
2022-10-22T01:28:01.647Z,43.92
2022-10-22T01:38:06.679Z,45.28
2022-10-22T01:48:19.976Z,42.28
2022-10-22T01:53:34.507Z,45.72
2022-10-22T01:58:42.353Z,45.30
2022-10-22T02:03:51.403Z,44.75
2022-10-22T02:08:53.250Z,44.00
2022-10-22T02:13:56.739Z,41.55
2022-10-22T02:18:59.855Z,41.10
2022-10-22T02:34:36.757Z,44.80
2022-10-22T02:40:25.504Z,47.85
2022-10-22T02:45:24.762Z,39.92
2022-10-22T02:50:23.412Z,42.40
2022-10-22T02:55:22.186Z,43.72
2022-10-22T03:00:20.956Z,39.92
2022-10-22T03:05:19.819Z,41.25
2022-10-22T03:10:18.522Z,40.92
2022-10-22T03:15:17.843Z,40.97
2022-10-22T03:20:19.297Z,37.88
2022-10-22T03:25:22.612Z,43.15
2022-10-22T03:30:21.604Z,41.03
2022-10-22T03:35:20.472Z,44.97
2022-10-22T03:40:19.643Z,37.65
2022-10-22T03:45:18.577Z,40.72
2022-10-22T03:50:17.574Z,41.05
2022-10-22T03:55:16.323Z,41.15
2022-10-22T04:00:15.254Z,43.58
2022-10-22T04:10:12.670Z,41.97
2022-10-22T04:15:11.351Z,44.67
2022-10-22T04:20:10.726Z,40.33
2022-10-22T04:25:09.831Z,43.78
2022-10-22T04:30:09.043Z,45.15
2022-10-22T04:35:08.002Z,39.80
2022-10-22T04:40:07.474Z,38.03
2022-10-22T04:45:06.533Z,38.92
2022-10-22T04:50:05.804Z,41.15
2022-10-22T04:55:05.204Z,37.35
2022-10-22T05:00:05.225Z,42.00
2022-10-22T05:05:04.533Z,35.75
2022-10-22T05:10:03.434Z,40.63
2022-10-22T05:15:02.246Z,37.80
2022-10-22T05:20:00.936Z,37.83
2022-10-22T05:24:59.693Z,41.03
2022-10-22T05:29:58.427Z,41.28
2022-10-22T05:34:57.316Z,34.25
2022-10-22T05:40:06.527Z,35.45
2022-10-22T05:45:14.973Z,39.90
2022-10-22T05:50:13.834Z,37.50
2022-10-22T05:55:12.537Z,33.72
2022-10-22T06:00:14.260Z,36.35
2022-10-22T06:05:15.211Z,31.73
2022-10-22T06:10:17.007Z,39.92
2022-10-22T06:15:18.231Z,36.22
2022-10-22T06:20:17.541Z,33.45
2022-10-22T06:25:16.323Z,37.03
2022-10-22T06:30:15.048Z,35.97
2022-10-22T06:35:13.947Z,35.80
2022-10-22T06:40:13.055Z,31.00
2022-10-22T06:45:11.803Z,33.92
2022-10-22T06:50:10.699Z,32.28
2022-10-22T06:55:10.258Z,34.60
2022-10-22T07:00:09.838Z,31.20
2022-10-22T07:05:09.120Z,21.17
2022-10-22T07:10:08.570Z,20.67
2022-10-22T07:15:07.662Z,29.38
2022-10-22T07:20:07.016Z,30.90
2022-10-22T07:25:07.288Z,29.95
2022-10-22T07:30:07.007Z,29.10
2022-10-22T07:35:06.075Z,32.92
2022-10-22T07:40:05.172Z,32.05
2022-10-22T07:45:04.246Z,35.42
2022-10-22T07:50:04.582Z,39.17
2022-10-22T07:55:04.369Z,35.67
2022-10-22T08:00:08.165Z,28.73
2022-10-22T08:05:13.536Z,36.35
2022-10-22T08:10:12.687Z,35.65
2022-10-22T08:15:11.284Z,36.22
2022-10-22T08:20:10.789Z,29.42
2022-10-22T08:25:09.776Z,30.33
2022-10-22T08:30:09.023Z,32.63
2022-10-22T08:35:07.833Z,31.73
2022-10-22T08:40:07.248Z,28.27
2022-10-22T08:45:14.175Z,29.90
2022-10-22T08:50:19.435Z,28.00
2022-10-22T08:55:18.727Z,26.67
2022-10-22T09:00:35.061Z,22.25
2022-10-22T09:05:46.352Z,23.77
2022-10-22T09:10:51.990Z,22.27
2022-10-22T09:16:19.136Z,26.55
2022-10-22T09:21:38.492Z,23.58
2022-10-22T09:26:40.493Z,20.38
2022-10-22T09:31:39.300Z,22.75
2022-10-22T09:36:38.094Z,23.45
2022-10-22T09:41:36.965Z,21.90
2022-10-22T09:46:43.985Z,17.85
2022-10-22T09:51:52.807Z,18.00
2022-10-22T09:57:04.062Z,16.90
2022-10-22T10:02:38.019Z,18.50
2022-10-22T10:07:37.594Z,15.68
2022-10-22T10:12:42.669Z,13.02
2022-10-22T10:17:59.972Z,10.98
2022-10-22T10:23:08.514Z,13.05
2022-10-22T10:28:34.465Z,13.13
2022-10-22T10:33:47.754Z,10.77
2022-10-22T10:38:56.850Z,12.02
2022-10-22T10:44:14.158Z,15.75
2022-10-22T10:49:25.909Z,13.73
2022-10-22T10:54:28.589Z,13.07
2022-10-22T10:59:33.119Z,15.88
2022-10-22T11:04:53.765Z,11.38
2022-10-22T11:10:02.185Z,12.23
2022-10-22T11:15:15.155Z,12.25
2022-10-22T11:20:20.105Z,10.63
2022-10-22T11:25:27.621Z,8.73
2022-10-22T11:30:32.005Z,8.13
2022-10-22T11:35:34.111Z,10.50
2022-10-22T11:40:36.675Z,12.25
2022-10-22T11:45:43.345Z,9.35
2022-10-22T11:50:54.484Z,10.25
2022-10-22T11:55:56.306Z,10.27
2022-10-22T12:01:01.553Z,10.15
2022-10-22T12:06:34.736Z,9.63
2022-10-22T12:11:36.492Z,11.20
2022-10-22T12:16:56.305Z,10.55
2022-10-22T12:22:29.755Z,10.93
2022-10-22T12:27:39.828Z,10.55
2022-10-22T12:32:42.458Z,9.52
2022-10-22T12:37:41.732Z,10.20
2022-10-22T12:42:47.990Z,10.95
2022-10-22T12:47:48.798Z,11.63
2022-10-22T12:52:48.740Z,11.07
2022-10-22T12:57:49.023Z,9.27
2022-10-22T13:02:47.941Z,9.80
2022-10-22T13:07:50.714Z,11.45
2022-10-22T13:17:50.258Z,8.45
2022-10-22T13:23:03.353Z,9.10
2022-10-22T13:28:10.854Z,10.23
2022-10-22T13:33:30.131Z,9.05
2022-10-22T13:38:29.436Z,9.82
2022-10-22T13:43:28.171Z,8.73
2022-10-22T13:48:30.007Z,7.82
2022-10-22T13:53:30.476Z,6.55
2022-10-22T13:58:29.161Z,8.45
2022-10-22T14:03:34.088Z,8.27
2022-10-22T14:08:32.868Z,7.13
2022-10-22T14:13:31.645Z,9.45
2022-10-22T14:18:33.083Z,7.70
2022-10-22T14:23:32.663Z,9.90
2022-10-22T14:28:37.213Z,10.23
2022-10-22T14:33:40.615Z,10.82
2022-10-22T14:38:39.531Z,9.52
2022-10-22T14:43:38.318Z,10.65
2022-10-22T14:48:37.030Z,12.55
2022-10-22T14:53:35.705Z,11.07
2022-10-22T14:58:34.513Z,15.27
2022-10-22T15:03:33.748Z,15.50
2022-10-22T15:08:32.607Z,10.90
2022-10-22T15:13:32.326Z,12.02
2022-10-22T15:18:31.080Z,12.88
2022-10-22T15:23:30.049Z,12.70
2022-10-22T15:28:29.552Z,13.95
2022-10-22T15:33:29.337Z,12.80
2022-10-22T15:43:28.566Z,15.57
2022-10-22T15:48:27.235Z,16.08
2022-10-22T15:53:25.968Z,15.27
2022-10-22T15:58:24.953Z,17.10
2022-10-22T16:03:23.709Z,21.48
2022-10-22T16:08:22.406Z,24.77
2022-10-22T16:13:24.087Z,21.55
2022-10-22T16:18:23.693Z,21.15
2022-10-22T16:23:23.089Z,25.23
2022-10-22T16:28:24.725Z,25.45
2022-10-22T16:33:26.278Z,23.92
2022-10-22T16:38:25.192Z,24.95
2022-10-22T16:43:23.881Z,27.48
2022-10-22T16:48:22.777Z,38.85
2022-10-22T16:53:21.512Z,24.35
2022-10-22T16:58:20.255Z,31.30
2022-10-22T17:03:18.983Z,39.13
2022-10-22T17:08:17.667Z,39.08
2022-10-22T17:13:16.525Z,41.10
2022-10-22T17:18:15.686Z,41.97
2022-10-22T17:23:14.376Z,38.75
2022-10-22T17:28:13.441Z,36.75
2022-10-22T17:33:12.079Z,33.45
2022-10-22T17:38:10.788Z,36.63
2022-10-22T17:43:09.432Z,34.47
2022-10-22T17:48:08.326Z,31.30
2022-10-22T17:53:07.140Z,38.90
2022-10-22T17:58:05.853Z,32.28
2022-10-22T18:03:04.624Z,35.28
2022-10-22T18:08:07.715Z,37.83
2022-10-22T18:13:06.784Z,33.10
2022-10-22T18:18:06.030Z,41.90
2022-10-22T18:23:04.837Z,41.67
2022-10-22T18:28:03.586Z,44.65
2022-10-22T18:33:02.518Z,41.30
2022-10-22T18:38:01.154Z,33.17
2022-10-22T18:42:59.800Z,36.63
2022-10-22T18:48:00.735Z,30.92
2022-10-22T18:52:59.446Z,30.95
2022-10-22T18:57:58.052Z,36.50
2022-10-22T19:02:56.828Z,32.92
2022-10-22T19:07:55.533Z,39.75
2022-10-22T19:12:54.330Z,30.63
2022-10-22T19:17:52.990Z,31.23
2022-10-22T19:22:53.439Z,30.23
2022-10-22T19:27:52.281Z,36.42
2022-10-22T19:32:51.058Z,33.47
2022-10-22T19:37:49.790Z,36.33
2022-10-22T19:42:51.404Z,36.10
2022-10-22T19:47:50.105Z,35.45
2022-10-22T19:52:48.770Z,30.42
2022-10-22T19:57:47.471Z,28.88
2022-10-22T20:02:46.396Z,33.08
2022-10-22T20:07:45.220Z,29.83
2022-10-22T20:12:43.988Z,23.73
2022-10-22T20:17:43.010Z,26.17
2022-10-22T20:22:43.357Z,20.27
2022-10-22T20:27:42.605Z,22.73
2022-10-22T20:32:41.575Z,20.80
2022-10-22T20:37:40.731Z,16.33
2022-10-22T20:42:39.984Z,17.02
2022-10-22T20:47:51.277Z,23.95
2022-10-22T20:52:57.508Z,20.15
2022-10-22T20:57:56.229Z,20.35
2022-10-22T21:02:54.934Z,22.02
2022-10-22T21:07:53.588Z,22.67
2022-10-22T21:12:52.284Z,20.50
2022-10-22T21:17:51.072Z,23.75
2022-10-22T21:22:49.923Z,24.38
2022-10-22T21:27:48.634Z,25.23
2022-10-22T21:32:47.511Z,22.67
2022-10-22T21:37:46.254Z,23.83
2022-10-22T21:42:45.068Z,25.13
2022-10-22T21:47:44.871Z,23.77
2022-10-22T21:52:43.625Z,21.48
2022-10-22T21:57:42.541Z,23.30
2022-10-22T22:02:41.786Z,21.40
2022-10-22T22:07:40.866Z,20.15
2022-10-22T22:12:40.032Z,21.55
2022-10-22T22:17:40.555Z,21.70
2022-10-22T22:22:44.277Z,19.70
2022-10-22T22:27:43.841Z,20.65
2022-10-22T22:32:42.789Z,19.50
2022-10-22T22:37:41.946Z,18.40
2022-10-22T22:42:41.316Z,18.17
2022-10-22T22:47:40.355Z,20.23
2022-10-22T22:52:39.738Z,16.55
2022-10-22T22:57:38.724Z,18.48
2022-10-22T23:02:37.373Z,16.17
2022-10-22T23:07:38.966Z,14.80
2022-10-22T23:12:37.745Z,18.30
2022-10-22T23:17:39.435Z,20.80
2022-10-22T23:22:47.508Z,19.73
2022-10-22T23:27:46.249Z,21.60
2022-10-22T23:32:44.910Z,21.77
2022-10-22T23:37:43.938Z,21.88
2022-10-22T23:42:45.137Z,19.98
2022-10-22T23:47:44.087Z,20.17
2022-10-22T23:52:43.343Z,21.27
2022-10-22T23:57:42.254Z,25.83
